createdAt,value
2022-09-11T00:09:44.002Z,76.7
2022-09-11T00:24:53.720Z,77.1
2022-09-11T00:40:03.668Z,77.2
2022-09-11T00:55:12.364Z,77.3
2022-09-11T01:10:21.618Z,77.4
2022-09-11T01:25:31.142Z,77.5
2022-09-11T01:40:40.714Z,77.6
2022-09-11T01:55:49.734Z,77.7
2022-09-11T02:10:59.073Z,78
2022-09-11T02:26:08.473Z,78
2022-09-11T02:41:17.989Z,78.2
2022-09-11T02:56:27.487Z,78.3
2022-09-11T03:11:37.037Z,78.4
2022-09-11T03:26:46.428Z,78.6
2022-09-11T03:41:55.835Z,78.7
2022-09-11T03:57:05.232Z,78.9
2022-09-11T04:12:14.774Z,78.9
2022-09-11T04:27:24.023Z,78.9
2022-09-11T04:42:33.535Z,79.1
2022-09-11T04:57:43.075Z,79.2
2022-09-11T05:12:52.386Z,79.4
2022-09-11T05:28:01.821Z,79.4
2022-09-11T05:43:11.527Z,79.2
2022-09-11T05:58:21.100Z,79.2
2022-09-11T06:13:30.578Z,79.1
2022-09-11T06:28:40.936Z,79
2022-09-11T06:43:50.556Z,78.9
2022-09-11T06:58:59.983Z,78.9
2022-09-11T07:14:09.703Z,78.8
2022-09-11T07:29:18.900Z,78.3
2022-09-11T07:44:28.578Z,78.5
2022-09-11T07:59:40.992Z,78.4
2022-09-11T08:14:50.626Z,78.3
2022-09-11T08:30:00.553Z,78.1
2022-09-11T08:45:09.859Z,77.9
2022-09-11T09:00:19.779Z,77.9
2022-09-11T09:15:30.018Z,77.9
2022-09-11T09:30:39.526Z,77.9
2022-09-11T09:45:49.982Z,77.8
2022-09-11T10:01:00.162Z,77.8
2022-09-11T10:16:10.170Z,77.9
2022-09-11T10:31:20.310Z,77.5
2022-09-11T10:46:29.834Z,76.8
2022-09-11T11:01:40.098Z,76.3
2022-09-11T11:16:49.851Z,76.2
2022-09-11T11:31:59.670Z,76
2022-09-11T11:47:09.071Z,76
2022-09-11T12:02:19.480Z,73.2
2022-09-11T12:17:29.659Z,70.3
2022-09-11T12:32:39.359Z,72.4
2022-09-11T12:47:48.902Z,71.4
2022-09-11T13:03:08.530Z,71.8
2022-09-11T13:18:18.870Z,70.1
2022-09-11T13:33:28.919Z,69.2
2022-09-11T13:48:41.786Z,71.2
2022-09-11T14:03:51.641Z,71.3
2022-09-11T14:19:00.938Z,70.9
2022-09-11T14:34:10.490Z,69.4
2022-09-11T14:49:20.419Z,68.5
2022-09-11T15:04:30.098Z,68
2022-09-11T15:19:41.480Z,68.9
2022-09-11T15:34:50.538Z,70.8
2022-09-11T15:50:01.157Z,71.5
2022-09-11T16:05:10.008Z,71.9
2022-09-11T16:20:19.298Z,71.8
2022-09-11T16:35:29.326Z,71.8
2022-09-11T16:50:41.957Z,72
2022-09-11T17:05:51.910Z,72.3
2022-09-11T17:21:01.135Z,72.7
2022-09-11T17:36:10.713Z,73.1
2022-09-11T17:51:19.790Z,73.5
2022-09-11T18:06:29.154Z,73.8
2022-09-11T18:21:41.577Z,74.2
2022-09-11T18:36:51.125Z,74.5
2022-09-11T18:52:01.021Z,74.7
2022-09-11T19:07:10.603Z,75
2022-09-11T19:22:19.717Z,75.2
2022-09-11T19:37:28.896Z,75.1
2022-09-11T19:52:41.912Z,75.8
2022-09-11T20:07:51.134Z,76
2022-09-11T20:23:01.378Z,76.1
2022-09-11T20:38:10.555Z,76.3
2022-09-11T20:53:20.854Z,76.5
2022-09-11T21:08:29.562Z,76.9
2022-09-11T21:23:38.730Z,77
2022-09-11T21:38:48.388Z,77.2
2022-09-11T21:53:58.729Z,77.4
2022-09-11T22:09:08.062Z,77.5
2022-09-11T22:24:17.966Z,77.7
2022-09-11T22:39:26.399Z,77.8
2022-09-11T22:54:35.550Z,77.9
2022-09-11T23:09:44.999Z,78
2022-09-11T23:24:54.649Z,78.5
2022-09-11T23:40:04.848Z,78.2
2022-09-11T23:55:13.972Z,78.3
